createdAt,value
2019-03-31T00:02:12.157Z,23.40
2019-03-31T00:04:44.229Z,23.40
2019-03-31T00:07:15.947Z,23.40
2019-03-31T00:09:48.020Z,23.39
2019-03-31T00:12:19.923Z,23.39
2019-03-31T00:14:52.166Z,23.39
2019-03-31T00:17:23.833Z,23.41
2019-03-31T00:19:55.649Z,23.39
2019-03-31T00:22:27.773Z,23.40
2019-03-31T00:24:59.527Z,23.40
2019-03-31T00:27:31.690Z,23.40
2019-03-31T00:30:04.105Z,23.38
2019-03-31T00:32:35.957Z,23.40
2019-03-31T00:35:07.901Z,23.38
2019-03-31T00:37:39.448Z,23.40
2019-03-31T00:40:11.276Z,23.39
2019-03-31T00:42:43.219Z,23.40
2019-03-31T00:45:15.325Z,23.39
2019-03-31T00:47:47.058Z,23.40
2019-03-31T00:50:18.926Z,23.40
2019-03-31T00:52:50.671Z,23.40
2019-03-31T00:55:22.650Z,23.40
2019-03-31T00:57:54.545Z,23.41
2019-03-31T01:00:44.085Z,23.41
2019-03-31T01:03:16.188Z,23.41
2019-03-31T01:05:49.348Z,23.40
2019-03-31T01:08:21.056Z,23.40
2019-03-31T01:10:52.966Z,23.40
2019-03-31T01:13:25.250Z,23.40
2019-03-31T01:15:57.173Z,23.39
2019-03-31T01:18:29.817Z,23.39
2019-03-31T01:21:01.453Z,23.39
2019-03-31T01:23:33.347Z,23.42
2019-03-31T01:26:05.373Z,23.42
2019-03-31T01:28:36.939Z,23.42
2019-03-31T01:31:08.767Z,23.40
2019-03-31T01:33:40.922Z,23.41
2019-03-31T01:36:13.264Z,23.40
2019-03-31T01:38:45.062Z,23.43
2019-03-31T01:41:17.030Z,23.43
2019-03-31T01:43:48.879Z,23.42
2019-03-31T01:46:22.591Z,23.42
2019-03-31T01:48:54.574Z,23.43
2019-03-31T01:51:26.101Z,23.43
2019-03-31T01:53:58.041Z,23.42
2019-03-31T01:56:30.059Z,23.40
2019-03-31T01:59:01.825Z,23.40
2019-03-31T02:01:33.705Z,23.40
2019-03-31T02:04:05.485Z,23.39
2019-03-31T02:06:37.415Z,23.39
2019-03-31T02:09:09.501Z,23.39
2019-03-31T02:11:41.076Z,23.38
2019-03-31T02:14:13.153Z,23.39
2019-03-31T02:16:45.012Z,23.40
2019-03-31T02:19:16.670Z,23.39
2019-03-31T02:21:48.614Z,23.38
2019-03-31T02:24:20.709Z,23.39
2019-03-31T02:26:52.379Z,23.39
2019-03-31T02:29:24.158Z,23.38
2019-03-31T02:31:56.215Z,23.38
2019-03-31T02:34:28.492Z,23.38
2019-03-31T02:37:00.215Z,23.37
2019-03-31T02:39:32.545Z,23.38
2019-03-31T02:42:04.294Z,23.38
2019-03-31T02:44:35.836Z,23.38
2019-03-31T02:47:07.984Z,23.39
2019-03-31T02:49:39.613Z,23.38
2019-03-31T02:52:11.836Z,23.41
2019-03-31T02:54:43.555Z,23.43
2019-03-31T02:57:15.707Z,23.44
2019-03-31T02:59:47.380Z,23.45
2019-03-31T03:02:19.342Z,23.47
2019-03-31T03:04:51.688Z,23.49
2019-03-31T03:07:23.254Z,23.49
2019-03-31T03:09:55.360Z,23.50
2019-03-31T03:12:27.061Z,23.50
2019-03-31T03:14:59.039Z,23.51
2019-03-31T03:17:31.527Z,23.51
2019-03-31T03:20:04.009Z,23.52
2019-03-31T03:22:36.259Z,23.53
2019-03-31T03:25:08.494Z,23.53
2019-03-31T03:27:40.496Z,23.55
2019-03-31T03:30:12.489Z,23.54
2019-03-31T03:33:12.502Z,23.54
2019-03-31T03:35:18.100Z,23.56
2019-03-31T03:37:49.746Z,23.54
2019-03-31T03:40:21.511Z,23.55
2019-03-31T03:42:53.347Z,23.56
2019-03-31T03:45:25.060Z,23.56
2019-03-31T03:47:56.968Z,23.57
2019-03-31T03:50:28.738Z,23.57
2019-03-31T03:53:00.870Z,23.57
2019-03-31T03:55:32.731Z,23.57
2019-03-31T03:58:05.253Z,23.57
2019-03-31T04:00:37.058Z,23.58
2019-03-31T04:03:09.084Z,23.57
2019-03-31T04:05:41.261Z,23.57
2019-03-31T04:08:13.241Z,23.57
2019-03-31T04:10:48.195Z,23.56
2019-03-31T04:13:20.015Z,23.56
2019-03-31T04:15:51.643Z,23.57
2019-03-31T04:18:23.973Z,23.56
2019-03-31T04:20:56.070Z,23.57
2019-03-31T04:23:27.724Z,23.56
2019-03-31T04:25:59.927Z,23.56
2019-03-31T04:28:31.830Z,23.56
2019-03-31T04:31:03.816Z,23.57
2019-03-31T04:33:50.637Z,23.58
2019-03-31T04:36:08.816Z,23.59
2019-03-31T04:38:40.598Z,23.61
2019-03-31T04:41:12.563Z,23.62
2019-03-31T04:43:44.494Z,23.61
2019-03-31T04:46:16.598Z,23.61
2019-03-31T04:48:48.309Z,23.62
2019-03-31T04:51:20.097Z,23.62
2019-03-31T04:53:52.204Z,23.63
2019-03-31T04:56:24.573Z,23.62
2019-03-31T04:58:56.370Z,23.63
2019-03-31T05:01:27.817Z,23.63
2019-03-31T05:04:05.025Z,23.63
2019-03-31T05:06:33.115Z,23.63
2019-03-31T05:09:06.084Z,23.63
2019-03-31T05:11:37.812Z,23.63
2019-03-31T05:14:10.103Z,23.62
2019-03-31T05:16:42.140Z,23.61
2019-03-31T05:19:13.621Z,23.62
2019-03-31T05:21:45.584Z,23.61
2019-03-31T05:24:17.311Z,23.60
2019-03-31T05:26:49.013Z,23.59
2019-03-31T05:29:20.857Z,23.59
2019-03-31T05:32:10.976Z,23.59
2019-03-31T05:34:42.748Z,23.58
2019-03-31T05:37:14.857Z,23.58
2019-03-31T05:39:47.099Z,23.58
2019-03-31T05:42:18.925Z,23.57
2019-03-31T05:44:50.858Z,23.57
2019-03-31T05:47:22.505Z,23.58
2019-03-31T05:49:54.434Z,23.57
2019-03-31T05:52:26.106Z,23.56
2019-03-31T05:54:58.106Z,23.57
2019-03-31T05:57:30.012Z,23.57
2019-03-31T06:00:01.788Z,23.57
2019-03-31T06:02:34.328Z,23.59
2019-03-31T06:05:07.090Z,23.59
2019-03-31T06:07:38.905Z,23.59
2019-03-31T06:10:10.754Z,23.59
2019-03-31T06:12:43.078Z,23.60
2019-03-31T06:15:15.206Z,23.59
2019-03-31T06:17:46.964Z,23.61
2019-03-31T06:20:18.590Z,23.62
2019-03-31T06:22:50.700Z,23.62
2019-03-31T06:25:22.539Z,23.62
2019-03-31T06:27:54.280Z,23.63
2019-03-31T06:30:26.237Z,23.63
2019-03-31T06:32:58.088Z,23.64
2019-03-31T06:35:30.125Z,23.63
2019-03-31T06:38:02.499Z,23.63
2019-03-31T06:40:34.210Z,23.65
2019-03-31T06:43:05.960Z,23.63
2019-03-31T06:45:37.772Z,23.63
2019-03-31T06:48:09.349Z,23.63
2019-03-31T06:50:41.351Z,23.63
2019-03-31T06:53:13.717Z,23.62
2019-03-31T06:55:45.846Z,23.61
2019-03-31T06:58:17.824Z,23.61
2019-03-31T07:00:49.675Z,23.60
2019-03-31T07:03:22.931Z,23.60
2019-03-31T07:05:55.147Z,23.61
2019-03-31T07:08:27.008Z,23.61
2019-03-31T07:10:59.077Z,23.61
2019-03-31T07:13:31.221Z,23.61
2019-03-31T07:16:02.926Z,23.61
2019-03-31T07:18:34.630Z,23.61
2019-03-31T07:21:06.711Z,23.60
2019-03-31T07:23:39.128Z,23.60
2019-03-31T07:26:10.946Z,23.60
2019-03-31T07:28:42.644Z,23.61
2019-03-31T07:31:14.615Z,23.61
2019-03-31T07:33:46.742Z,23.60
2019-03-31T07:36:18.670Z,23.61
2019-03-31T07:38:50.647Z,23.62
2019-03-31T07:41:23.188Z,23.62
2019-03-31T07:43:55.757Z,23.64
2019-03-31T07:46:27.956Z,23.64
2019-03-31T07:49:00.325Z,23.64
2019-03-31T07:51:32.158Z,23.66
2019-03-31T07:54:03.950Z,23.68
2019-03-31T07:56:35.453Z,23.66
2019-03-31T07:59:08.657Z,23.67
2019-03-31T08:01:40.348Z,23.68
2019-03-31T08:04:14.588Z,23.68
2019-03-31T08:06:46.446Z,23.69
2019-03-31T08:09:18.086Z,23.71
2019-03-31T08:11:50.247Z,23.71
2019-03-31T08:14:22.253Z,23.73
2019-03-31T08:16:54.380Z,23.76
2019-03-31T08:19:26.560Z,23.78
2019-03-31T08:21:58.655Z,23.79
2019-03-31T08:24:32.148Z,23.82
2019-03-31T08:27:05.701Z,23.83
2019-03-31T08:29:37.699Z,23.84
2019-03-31T08:32:10.343Z,23.85
2019-03-31T08:34:42.363Z,23.86
2019-03-31T08:37:14.189Z,23.86
2019-03-31T08:39:45.981Z,23.87
2019-03-31T08:42:17.661Z,23.88
2019-03-31T08:44:49.462Z,23.88
2019-03-31T08:47:21.767Z,23.88
2019-03-31T08:49:53.511Z,23.88
2019-03-31T08:52:25.386Z,23.90
2019-03-31T08:54:57.111Z,23.91
2019-03-31T08:57:28.863Z,23.91
2019-03-31T09:00:00.466Z,23.92
2019-03-31T09:02:34.047Z,23.93
2019-03-31T09:05:07.579Z,23.93
2019-03-31T09:07:41.812Z,23.93
2019-03-31T09:10:13.208Z,23.94
2019-03-31T09:12:48.264Z,23.95
2019-03-31T09:15:18.793Z,23.96
2019-03-31T09:17:54.066Z,23.95
2019-03-31T09:20:24.214Z,23.96
2019-03-31T09:22:56.379Z,23.96
2019-03-31T09:25:28.211Z,23.97
2019-03-31T09:28:00.212Z,23.98
2019-03-31T09:30:32.027Z,23.98
2019-03-31T09:33:03.836Z,23.99
2019-03-31T09:35:35.603Z,23.99
2019-03-31T09:38:08.216Z,23.99
2019-03-31T09:40:40.108Z,23.99
2019-03-31T09:43:11.840Z,23.99
2019-03-31T09:45:44.018Z,23.99
2019-03-31T09:48:16.254Z,24.00
2019-03-31T09:50:48.069Z,24.00
2019-03-31T09:53:19.900Z,24.00
2019-03-31T09:55:51.459Z,24.02
2019-03-31T09:58:23.705Z,23.99
2019-03-31T10:00:55.447Z,23.98
2019-03-31T10:03:27.147Z,23.96
2019-03-31T10:06:10.007Z,23.92
2019-03-31T10:08:32.935Z,23.92
2019-03-31T10:11:04.684Z,23.92
2019-03-31T10:13:36.689Z,23.91
2019-03-31T10:16:08.465Z,23.90
2019-03-31T10:18:40.351Z,23.93
2019-03-31T10:21:12.138Z,23.93
2019-03-31T10:23:44.078Z,23.97
2019-03-31T10:26:30.975Z,23.99
2019-03-31T10:28:50.690Z,23.99
2019-03-31T10:31:22.765Z,23.97
2019-03-31T10:33:54.632Z,23.95
2019-03-31T10:36:26.316Z,23.94
2019-03-31T10:38:58.109Z,23.93
2019-03-31T10:41:31.083Z,23.92
2019-03-31T10:44:03.058Z,23.92
2019-03-31T10:46:34.563Z,23.90
2019-03-31T10:49:06.376Z,23.92
2019-03-31T10:51:38.433Z,23.93
2019-03-31T10:54:09.920Z,23.91
2019-03-31T10:56:41.958Z,23.90
2019-03-31T10:59:14.258Z,23.90
2019-03-31T11:01:46.392Z,23.90
2019-03-31T11:07:07.609Z,23.87
2019-03-31T11:09:39.458Z,23.88
2019-03-31T11:12:11.378Z,23.86
2019-03-31T11:14:43.244Z,23.86
2019-03-31T11:17:14.896Z,23.86
2019-03-31T11:19:46.922Z,23.88
2019-03-31T11:22:26.690Z,23.88
2019-03-31T11:24:58.587Z,23.87
2019-03-31T11:27:30.217Z,23.86
2019-03-31T11:30:02.045Z,23.85
2019-03-31T11:32:34.163Z,23.85
2019-03-31T11:35:07.825Z,23.86
2019-03-31T11:37:39.427Z,23.84
2019-03-31T11:40:11.320Z,23.85
2019-03-31T11:42:44.000Z,23.85
2019-03-31T11:45:15.847Z,23.83
2019-03-31T11:47:47.999Z,23.83
2019-03-31T11:50:19.853Z,23.84
2019-03-31T11:52:51.890Z,23.84
2019-03-31T11:55:24.867Z,23.83
2019-03-31T11:57:56.919Z,23.83
2019-03-31T12:00:30.483Z,23.81
2019-03-31T12:03:02.493Z,23.84
2019-03-31T12:05:40.253Z,23.83
2019-03-31T12:08:12.152Z,23.81
2019-03-31T12:10:43.947Z,23.80
2019-03-31T12:13:16.172Z,23.81
2019-03-31T12:15:47.764Z,23.80
2019-03-31T12:18:19.536Z,23.79
2019-03-31T12:20:51.614Z,23.77
2019-03-31T12:23:23.604Z,23.74
2019-03-31T12:25:57.013Z,23.76
2019-03-31T12:28:29.216Z,23.77
2019-03-31T12:31:01.423Z,23.77
2019-03-31T12:33:33.437Z,23.78
2019-03-31T12:36:05.875Z,23.78
2019-03-31T12:38:37.499Z,23.78
2019-03-31T12:41:11.055Z,23.80
2019-03-31T12:43:43.070Z,23.79
2019-03-31T12:46:15.486Z,23.81
2019-03-31T12:48:47.519Z,23.81
2019-03-31T12:51:19.685Z,23.82
2019-03-31T12:53:51.725Z,23.81
2019-03-31T12:56:25.322Z,23.81
2019-03-31T12:59:00.951Z,23.81
2019-03-31T13:01:33.056Z,23.82
2019-03-31T13:04:07.789Z,23.83
2019-03-31T13:06:39.846Z,23.81
2019-03-31T13:09:11.652Z,23.83
2019-03-31T13:11:43.689Z,23.82
2019-03-31T13:14:15.402Z,23.82
2019-03-31T13:16:47.641Z,23.90
2019-03-31T13:19:19.625Z,23.92
2019-03-31T13:21:51.294Z,23.93
2019-03-31T13:24:22.903Z,23.93
2019-03-31T13:26:56.444Z,23.93
2019-03-31T13:29:28.286Z,23.93
2019-03-31T13:32:00.009Z,23.93
2019-03-31T13:34:31.695Z,23.92
2019-03-31T13:37:03.422Z,23.92
2019-03-31T13:39:35.862Z,23.92
2019-03-31T13:42:07.943Z,23.93
2019-03-31T13:44:39.895Z,23.92
2019-03-31T13:47:11.495Z,23.92
2019-03-31T13:49:43.233Z,23.93
2019-03-31T13:52:15.053Z,23.92
2019-03-31T13:54:46.710Z,23.91
2019-03-31T13:57:18.655Z,23.92
2019-03-31T13:59:50.828Z,23.90
2019-03-31T14:02:22.600Z,23.91
2019-03-31T14:04:54.401Z,23.91
2019-03-31T14:07:26.101Z,23.91
2019-03-31T14:09:58.080Z,23.91
2019-03-31T14:12:29.927Z,23.92
2019-03-31T14:15:01.728Z,23.92
2019-03-31T14:17:34.001Z,23.94
2019-03-31T14:20:07.786Z,23.94
2019-03-31T14:22:39.669Z,23.94
2019-03-31T14:25:11.511Z,23.94
2019-03-31T14:27:43.252Z,23.93
2019-03-31T14:30:15.310Z,23.93
2019-03-31T14:32:47.598Z,23.91
2019-03-31T14:35:19.747Z,23.92
2019-03-31T14:37:51.651Z,23.92
2019-03-31T14:40:24.162Z,23.91
2019-03-31T14:42:55.886Z,23.91
2019-03-31T14:45:34.641Z,23.90
2019-03-31T14:48:06.216Z,23.90
2019-03-31T14:50:38.633Z,23.90
2019-03-31T14:53:10.472Z,23.90
2019-03-31T14:55:41.986Z,23.90
2019-03-31T14:58:13.845Z,23.89
2019-03-31T15:00:47.141Z,23.90
2019-03-31T15:03:19.508Z,23.89
2019-03-31T15:05:51.575Z,23.88
2019-03-31T15:08:23.408Z,23.88
2019-03-31T15:10:55.497Z,23.90
2019-03-31T15:13:27.486Z,23.88
2019-03-31T15:15:59.728Z,23.88
2019-03-31T15:18:31.794Z,23.88
2019-03-31T15:21:03.510Z,23.88
2019-03-31T15:23:35.296Z,23.88
2019-03-31T15:26:07.138Z,23.88
2019-03-31T15:28:38.986Z,23.88
2019-03-31T15:31:10.945Z,23.88
2019-03-31T15:33:42.710Z,23.88
2019-03-31T15:36:14.411Z,23.88
2019-03-31T15:38:46.323Z,23.88
2019-03-31T15:41:21.258Z,23.89
2019-03-31T15:43:51.790Z,23.88
2019-03-31T15:46:24.773Z,23.90
2019-03-31T15:48:56.939Z,23.89
2019-03-31T15:51:28.703Z,23.88
2019-03-31T15:54:00.826Z,23.88
2019-03-31T15:56:33.088Z,23.90
2019-03-31T15:59:04.968Z,23.90
2019-03-31T16:01:39.722Z,23.88
2019-03-31T16:04:11.656Z,23.88
2019-03-31T16:06:43.605Z,23.88
2019-03-31T16:09:23.418Z,23.88
2019-03-31T16:11:53.976Z,23.88
2019-03-31T16:14:23.570Z,23.88
2019-03-31T16:16:55.425Z,23.88
2019-03-31T16:19:27.571Z,23.88
2019-03-31T16:21:59.468Z,23.89
2019-03-31T16:24:42.566Z,23.88
2019-03-31T16:27:14.425Z,23.89
2019-03-31T16:29:46.355Z,23.89
2019-03-31T16:32:18.127Z,23.88
2019-03-31T16:34:50.124Z,23.88
2019-03-31T16:37:22.298Z,23.88
2019-03-31T16:39:54.043Z,23.89
2019-03-31T16:42:25.629Z,23.88
2019-03-31T16:44:58.687Z,23.90
2019-03-31T16:47:31.164Z,23.88
2019-03-31T16:50:03.701Z,23.89
2019-03-31T16:52:37.063Z,23.90
2019-03-31T16:55:09.045Z,23.90
2019-03-31T16:57:41.245Z,23.88
2019-03-31T17:00:13.379Z,23.90
2019-03-31T17:02:48.213Z,23.88
2019-03-31T17:05:22.191Z,23.88
2019-03-31T17:07:54.025Z,23.88
2019-03-31T17:10:25.726Z,23.88
2019-03-31T17:12:59.893Z,23.88
2019-03-31T17:15:32.917Z,23.88
2019-03-31T17:18:05.173Z,23.90
2019-03-31T17:20:37.537Z,23.88
2019-03-31T17:23:09.448Z,23.90
2019-03-31T17:25:41.201Z,23.90
2019-03-31T17:28:13.237Z,23.90
2019-03-31T17:30:45.101Z,23.91
2019-03-31T17:33:17.047Z,23.90
2019-03-31T17:35:50.037Z,23.92
2019-03-31T17:38:22.292Z,23.90
2019-03-31T17:40:54.181Z,23.92
2019-03-31T17:43:25.891Z,23.90
2019-03-31T17:45:58.174Z,23.92
2019-03-31T17:48:29.930Z,23.91
2019-03-31T17:51:01.721Z,23.91
2019-03-31T17:53:33.431Z,23.91
2019-03-31T17:56:05.411Z,23.91
2019-03-31T17:58:37.322Z,23.91
2019-03-31T18:01:11.400Z,23.74
2019-03-31T18:03:42.959Z,23.67
2019-03-31T18:06:15.000Z,23.61
2019-03-31T18:08:46.779Z,23.47
2019-03-31T18:11:18.758Z,23.41
2019-03-31T18:13:50.476Z,23.31
2019-03-31T18:16:22.173Z,23.28
2019-03-31T18:18:54.378Z,23.18
2019-03-31T18:21:27.363Z,23.19
2019-03-31T18:23:59.606Z,23.04
2019-03-31T18:26:32.971Z,22.93
2019-03-31T18:29:04.751Z,22.81
2019-03-31T18:31:36.482Z,22.61
2019-03-31T18:34:09.328Z,22.55
2019-03-31T18:36:41.415Z,22.73
2019-03-31T18:39:13.664Z,22.85
2019-03-31T18:41:45.485Z,22.95
2019-03-31T18:44:17.142Z,23.06
2019-03-31T18:46:48.904Z,23.17
2019-03-31T18:49:20.859Z,23.25
2019-03-31T18:51:52.701Z,23.32
2019-03-31T18:54:37.440Z,23.38
2019-03-31T18:57:28.372Z,23.45
2019-03-31T19:00:04.443Z,23.50
2019-03-31T19:02:40.651Z,23.53
2019-03-31T19:05:14.351Z,23.56
2019-03-31T19:07:54.069Z,23.60
2019-03-31T19:10:33.647Z,23.63
2019-03-31T19:13:22.948Z,23.66
2019-03-31T19:16:12.453Z,23.69
2019-03-31T19:18:57.931Z,23.71
2019-03-31T19:21:51.180Z,23.71
2019-03-31T19:24:33.267Z,23.74
2019-03-31T19:27:25.311Z,23.76
2019-03-31T19:30:09.916Z,23.78
2019-03-31T19:32:46.058Z,23.81
2019-03-31T19:35:36.000Z,23.81
2019-03-31T19:38:09.304Z,23.82
2019-03-31T19:41:04.429Z,23.83
2019-03-31T19:43:33.297Z,23.85
2019-03-31T19:46:08.514Z,23.86
2019-03-31T19:48:57.698Z,23.85
2019-03-31T19:51:43.132Z,23.33
2019-03-31T19:54:18.963Z,22.70
2019-03-31T19:56:52.476Z,22.33
2019-03-31T19:59:38.061Z,22.10
2019-03-31T20:02:20.450Z,21.72
2019-03-31T20:05:02.450Z,21.62
2019-03-31T20:07:35.663Z,21.46
2019-03-31T20:10:24.075Z,21.27
2019-03-31T20:13:13.636Z,21.18
2019-03-31T20:16:03.097Z,21.14
2019-03-31T20:18:51.144Z,21.05
2019-03-31T20:21:32.225Z,21.08
2019-03-31T20:24:21.932Z,20.90
2019-03-31T20:27:12.242Z,20.90
2019-03-31T20:29:49.249Z,20.93
2019-03-31T20:32:39.477Z,20.94
2019-03-31T20:35:15.540Z,20.87
2019-03-31T20:37:54.816Z,20.89
2019-03-31T20:40:30.818Z,20.91
2019-03-31T20:43:06.816Z,20.78
2019-03-31T20:45:38.984Z,20.72
2019-03-31T20:48:11.081Z,20.68
2019-03-31T20:50:43.064Z,20.72
2019-03-31T20:53:14.938Z,21.13
2019-03-31T20:55:47.121Z,21.36
2019-03-31T20:58:19.867Z,21.52
2019-03-31T21:00:51.780Z,21.67
2019-03-31T21:03:23.434Z,21.76
2019-03-31T21:05:55.133Z,21.93
2019-03-31T21:08:26.655Z,21.96
2019-03-31T21:10:58.617Z,22.02
2019-03-31T21:13:30.223Z,22.08
2019-03-31T21:16:01.662Z,22.19
2019-03-31T21:18:33.654Z,22.31
2019-03-31T21:21:05.396Z,22.24
2019-03-31T21:23:37.496Z,22.26
2019-03-31T21:26:09.547Z,22.24
2019-03-31T21:28:41.171Z,22.20
2019-03-31T21:31:13.356Z,22.14
2019-03-31T21:33:45.090Z,22.29
2019-03-31T21:36:17.311Z,22.48
2019-03-31T21:38:49.073Z,22.66
2019-03-31T21:41:21.235Z,22.81
2019-03-31T21:43:52.967Z,22.91
2019-03-31T21:46:24.631Z,23.05
2019-03-31T21:48:56.515Z,23.14
2019-03-31T21:51:28.557Z,23.22
2019-03-31T21:54:00.131Z,23.29
2019-03-31T21:56:32.110Z,23.34
2019-03-31T21:59:04.083Z,23.40
2019-03-31T22:01:36.152Z,23.47
2019-03-31T22:04:07.913Z,23.52
2019-03-31T22:06:39.683Z,23.58
2019-03-31T22:09:11.811Z,23.62
2019-03-31T22:11:43.749Z,23.65
2019-03-31T22:14:15.849Z,23.69
2019-03-31T22:16:47.677Z,23.70
2019-03-31T22:19:19.754Z,23.73
2019-03-31T22:21:51.690Z,23.74
2019-03-31T22:24:23.545Z,23.76
2019-03-31T22:26:55.595Z,23.77
2019-03-31T22:29:27.727Z,23.79
2019-03-31T22:31:59.468Z,23.81
2019-03-31T22:34:31.120Z,23.81
2019-03-31T22:37:02.632Z,23.83
2019-03-31T22:39:34.622Z,23.84
2019-03-31T22:42:06.500Z,23.86
2019-03-31T22:44:38.133Z,23.86
2019-03-31T22:47:09.991Z,23.88
2019-03-31T22:49:42.071Z,23.88
2019-03-31T22:52:13.785Z,23.90
2019-03-31T22:54:45.816Z,23.90
2019-03-31T22:57:17.618Z,23.91
2019-03-31T22:59:49.549Z,23.92
2019-03-31T23:02:21.434Z,23.92
2019-03-31T23:04:53.248Z,23.93
2019-03-31T23:07:24.937Z,23.92
2019-03-31T23:09:56.702Z,23.93
2019-03-31T23:12:28.251Z,23.95
2019-03-31T23:15:00.364Z,23.93
2019-03-31T23:17:32.288Z,23.94
2019-03-31T23:20:05.218Z,23.96
2019-03-31T23:22:37.032Z,23.95
2019-03-31T23:25:09.082Z,23.94
2019-03-31T23:27:40.782Z,23.94
2019-03-31T23:30:12.752Z,23.94
2019-03-31T23:32:44.568Z,23.94
2019-03-31T23:35:16.599Z,23.94
2019-03-31T23:37:48.523Z,23.93
2019-03-31T23:40:20.078Z,23.92
2019-03-31T23:42:51.995Z,23.92
2019-03-31T23:45:24.154Z,23.91
2019-03-31T23:47:56.101Z,23.88
2019-03-31T23:50:27.848Z,23.88
2019-03-31T23:53:00.011Z,23.88
2019-03-31T23:55:31.906Z,23.88
2019-03-31T23:58:03.765Z,23.85
